Bradford County (N27)
Towanda, PA
Field Elevation: 730
Lat: 41°44.40N  Long: 76°26.83W
CTAF/Unicom Freq: 123.0000
   
     For Weather-by-Phone, call (570) 265-1024
Weather Advisories
4/1/2015   17:47 Z
Altimeter 30.15" Hg
Wind 040° @ 6 KT
Gusts 14 KT
Visibility 10 SM
Ceiling CLR
Temperature 5° C (41° F)
Dewpoint -7° C (19° F)
Relative Humidity 41%
Density Altitude --
Condensation Altitude 6,500 feet
Wind Chill: 2° C (36° F)
Wind and Runways
Indicated Runway = 05
Headwind = 6 kt
Crosswind = 1 kt
History
 
 
 
More Info
All DigiWx sites map
NOAA Forecast
 
Airport IQ 5010
(LHV) Lock Haven
(PS81) Robert Packer Hospital
 
about DigiWx
 
FAA Disclaimer: The data displayed is for advisory purposes only and is not to be used for flight planning or operations. For official data, please call (570) 265-1024 to hear the current automated AWOS voice message.
  METAR N27 011747Z AUTO 04006G14KT VIS 10 SM CLR 05/M07 A3015